Darien, Illinois
Current Conditions -  °F | °C
As of 12:55 AM on Friday 31 Oct 2014 (Local Time) from KLOT Reporting Station
Overcast Overcast  
Wind Chill: 41°   Ceiling: 5000
Heat Index: 45°   Visibility: 10mi
Dew Point: 37°   Wind: 6mph
Humidity: 74%   Direction: 270°W
Pressure: 30.04"   Gusts: NA
Location:  41.75°N, 87.98°W
Report Text: KLOT 310555Z AUTO 27005KT 10SM OVC050 07/03 A3004 RMK AO2 T00700027 10077 20062 401061008
Loading
Personal Weather Stations






























Interactive Weather Map
Tropical Storm Tracking
New forecast layout! Learn more

10-Day Weather Forecast

Advertisements
Track Severe Weather on mobile